sensor_id;sensor_type;location;lat;lon;timestamp;P1;durP1;ratioP1;P2;durP2;ratioP2
8580;SDS011;4328;48.622;9.230;2023-05-15T00:01:27;6.03;;;5.53;;
8580;SDS011;4328;48.622;9.230;2023-05-15T00:03:56;5.23;;;4.77;;
8580;SDS011;4328;48.622;9.230;2023-05-15T00:06:22;5.97;;;5.50;;
8580;SDS011;4328;48.622;9.230;2023-05-15T00:08:49;6.00;;;5.40;;
8580;SDS011;4328;48.622;9.230;2023-05-15T00:11:16;5.43;;;4.93;;
8580;SDS011;4328;48.622;9.230;2023-05-15T00:13:42;5.60;;;5.00;;
8580;SDS011;4328;48.622;9.230;2023-05-15T00:16:09;5.73;;;5.13;;
8580;SDS011;4328;48.622;9.230;2023-05-15T00:18:36;5.60;;;5.17;;
8580;SDS011;4328;48.622;9.230;2023-05-15T00:21:04;6.20;;;5.60;;
8580;SDS011;4328;48.622;9.230;2023-05-15T00:23:31;5.40;;;5.00;;
8580;SDS011;4328;48.622;9.230;2023-05-15T00:25:57;5.63;;;5.23;;
8580;SDS011;4328;48.622;9.230;2023-05-15T00:28:24;6.57;;;5.00;;
8580;SDS011;4328;48.622;9.230;2023-05-15T00:30:51;5.90;;;4.80;;
8580;SDS011;4328;48.622;9.230;2023-05-15T00:33:18;6.87;;;5.27;;
8580;SDS011;4328;48.622;9.230;2023-05-15T00:35:44;6.00;;;5.50;;
8580;SDS011;4328;48.622;9.230;2023-05-15T00:38:12;4.80;;;4.50;;
8580;SDS011;4328;48.622;9.230;2023-05-15T00:40:39;5.90;;;5.40;;
8580;SDS011;4328;48.622;9.230;2023-05-15T00:43:08;6.03;;;5.37;;
8580;SDS011;4328;48.622;9.230;2023-05-15T00:45:38;5.20;;;4.80;;
8580;SDS011;4328;48.622;9.230;2023-05-15T00:48:09;6.97;;;5.33;;
8580;SDS011;4328;48.622;9.230;2023-05-15T00:50:41;5.23;;;4.73;;
8580;SDS011;4328;48.622;9.230;2023-05-15T00:53:10;5.70;;;5.20;;
8580;SDS011;4328;48.622;9.230;2023-05-15T00:55:38;6.80;;;5.50;;
8580;SDS011;4328;48.622;9.230;2023-05-15T00:58:07;5.20;;;4.80;;
8580;SDS011;4328;48.622;9.230;2023-05-15T01:00:36;8.13;;;5.43;;
8580;SDS011;4328;48.622;9.230;2023-05-15T01:03:03;5.63;;;5.13;;
8580;SDS011;4328;48.622;9.230;2023-05-15T01:05:30;5.77;;;4.90;;
8580;SDS011;4328;48.622;9.230;2023-05-15T01:08:00;6.23;;;5.73;;
8580;SDS011;4328;48.622;9.230;2023-05-15T01:10:33;7.63;;;5.37;;
8580;SDS011;4328;48.622;9.230;2023-05-15T01:13:02;7.33;;;5.30;;
8580;SDS011;4328;48.622;9.230;2023-05-15T01:15:30;6.40;;;5.50;;
8580;SDS011;4328;48.622;9.230;2023-05-15T01:17:58;5.67;;;4.93;;
8580;SDS011;4328;48.622;9.230;2023-05-15T01:20:24;6.17;;;4.37;;
8580;SDS011;4328;48.622;9.230;2023-05-15T01:22:54;5.33;;;4.93;;
8580;SDS011;4328;48.622;9.230;2023-05-15T01:25:36;5.20;;;4.80;;
8580;SDS011;4328;48.622;9.230;2023-05-15T01:28:19;4.87;;;4.47;;
8580;SDS011;4328;48.622;9.230;2023-05-15T01:30:48;5.83;;;5.03;;
8580;SDS011;4328;48.622;9.230;2023-05-15T01:33:19;5.40;;;4.90;;
8580;SDS011;4328;48.622;9.230;2023-05-15T01:35:49;5.63;;;5.20;;
8580;SDS011;4328;48.622;9.230;2023-05-15T01:38:23;5.00;;;4.60;;
8580;SDS011;4328;48.622;9.230;2023-05-15T01:40:56;5.63;;;5.13;;
8580;SDS011;4328;48.622;9.230;2023-05-15T01:43:29;5.90;;;5.03;;
8580;SDS011;4328;48.622;9.230;2023-05-15T01:45:58;5.40;;;5.00;;
8580;SDS011;4328;48.622;9.230;2023-05-15T01:48:26;6.10;;;5.60;;
8580;SDS011;4328;48.622;9.230;2023-05-15T01:50:54;4.93;;;4.53;;
8580;SDS011;4328;48.622;9.230;2023-05-15T01:53:27;5.40;;;4.80;;
8580;SDS011;4328;48.622;9.230;2023-05-15T01:55:56;5.40;;;4.90;;
8580;SDS011;4328;48.622;9.230;2023-05-15T01:58:24;5.43;;;4.93;;
8580;SDS011;4328;48.622;9.230;2023-05-15T02:00:53;7.40;;;5.20;;
8580;SDS011;4328;48.622;9.230;2023-05-15T02:03:21;5.97;;;5.10;;
8580;SDS011;4328;48.622;9.230;2023-05-15T02:05:48;6.07;;;4.97;;
8580;SDS011;4328;48.622;9.230;2023-05-15T02:08:17;5.67;;;5.17;;
8580;SDS011;4328;48.622;9.230;2023-05-15T02:10:46;5.83;;;5.33;;
8580;SDS011;4328;48.622;9.230;2023-05-15T02:13:13;7.03;;;4.73;;
8580;SDS011;4328;48.622;9.230;2023-05-15T02:15:41;6.67;;;4.80;;
8580;SDS011;4328;48.622;9.230;2023-05-15T02:18:09;5.60;;;5.20;;
8580;SDS011;4328;48.622;9.230;2023-05-15T02:20:36;5.47;;;5.07;;
8580;SDS011;4328;48.622;9.230;2023-05-15T02:23:03;5.30;;;4.90;;
8580;SDS011;4328;48.622;9.230;2023-05-15T02:25:32;5.00;;;4.60;;
8580;SDS011;4328;48.622;9.230;2023-05-15T02:28:03;5.60;;;5.00;;
8580;SDS011;4328;48.622;9.230;2023-05-15T02:30:37;5.70;;;5.30;;
8580;SDS011;4328;48.622;9.230;2023-05-15T02:33:13;5.13;;;4.73;;
8580;SDS011;4328;48.622;9.230;2023-05-15T02:35:50;5.43;;;4.93;;
8580;SDS011;4328;48.622;9.230;2023-05-15T02:38:22;5.33;;;4.93;;
8580;SDS011;4328;48.622;9.230;2023-05-15T02:40:53;5.67;;;5.20;;
8580;SDS011;4328;48.622;9.230;2023-05-15T02:43:22;5.20;;;4.80;;
8580;SDS011;4328;48.622;9.230;2023-05-15T02:45:51;5.37;;;4.97;;
8580;SDS011;4328;48.622;9.230;2023-05-15T02:48:19;4.90;;;4.50;;
8580;SDS011;4328;48.622;9.230;2023-05-15T02:50:47;5.50;;;5.00;;
8580;SDS011;4328;48.622;9.230;2023-05-15T02:53:14;5.53;;;5.13;;
8580;SDS011;4328;48.622;9.230;2023-05-15T02:55:40;5.37;;;4.90;;
8580;SDS011;4328;48.622;9.230;2023-05-15T03:01:53;5.43;;;5.03;;
8580;SDS011;4328;48.622;9.230;2023-05-15T03:04:44;5.27;;;4.87;;
8580;SDS011;4328;48.622;9.230;2023-05-15T03:07:11;5.33;;;4.83;;
8580;SDS011;4328;48.622;9.230;2023-05-15T03:09:38;5.80;;;5.40;;
8580;SDS011;4328;48.622;9.230;2023-05-15T03:12:05;5.70;;;5.10;;
8580;SDS011;4328;48.622;9.230;2023-05-15T03:14:32;6.97;;;4.90;;
8580;SDS011;4328;48.622;9.230;2023-05-15T03:16:59;5.03;;;4.63;;
8580;SDS011;4328;48.622;9.230;2023-05-15T03:19:26;5.43;;;4.93;;
8580;SDS011;4328;48.622;9.230;2023-05-15T03:21:54;5.40;;;4.90;;
8580;SDS011;4328;48.622;9.230;2023-05-15T03:24:20;4.97;;;4.60;;
8580;SDS011;4328;48.622;9.230;2023-05-15T03:26:47;5.37;;;4.83;;
8580;SDS011;4328;48.622;9.230;2023-05-15T03:29:13;5.83;;;5.33;;
8580;SDS011;4328;48.622;9.230;2023-05-15T03:31:40;5.67;;;5.17;;
8580;SDS011;4328;48.622;9.230;2023-05-15T03:34:07;5.33;;;4.83;;
8580;SDS011;4328;48.622;9.230;2023-05-15T03:36:33;5.97;;;5.13;;
8580;SDS011;4328;48.622;9.230;2023-05-15T03:39:01;4.93;;;4.53;;
8580;SDS011;4328;48.622;9.230;2023-05-15T03:41:28;5.17;;;4.67;;
8580;SDS011;4328;48.622;9.230;2023-05-15T03:43:55;5.10;;;4.70;;
8580;SDS011;4328;48.622;9.230;2023-05-15T03:46:24;5.23;;;4.83;;
8580;SDS011;4328;48.622;9.230;2023-05-15T03:48:51;6.00;;;5.50;;
8580;SDS011;4328;48.622;9.230;2023-05-15T03:51:18;6.23;;;5.27;;
8580;SDS011;4328;48.622;9.230;2023-05-15T03:53:45;4.93;;;4.53;;
8580;SDS011;4328;48.622;9.230;2023-05-15T03:56:13;4.83;;;4.53;;
8580;SDS011;4328;48.622;9.230;2023-05-15T03:58:40;5.07;;;4.67;;
8580;SDS011;4328;48.622;9.230;2023-05-15T04:01:06;5.47;;;5.00;;
8580;SDS011;4328;48.622;9.230;2023-05-15T04:03:33;5.70;;;5.20;;
8580;SDS011;4328;48.622;9.230;2023-05-15T04:05:59;5.30;;;4.67;;
8580;SDS011;4328;48.622;9.230;2023-05-15T04:08:26;5.03;;;4.70;;
8580;SDS011;4328;48.622;9.230;2023-05-15T04:10:53;4.87;;;4.47;;
8580;SDS011;4328;48.622;9.230;2023-05-15T04:13:21;4.70;;;4.30;;
8580;SDS011;4328;48.622;9.230;2023-05-15T04:15:47;5.30;;;4.80;;
8580;SDS011;4328;48.622;9.230;2023-05-15T04:18:14;4.50;;;4.20;;
8580;SDS011;4328;48.622;9.230;2023-05-15T04:20:40;5.30;;;4.80;;
8580;SDS011;4328;48.622;9.230;2023-05-15T04:23:07;5.03;;;4.63;;
8580;SDS011;4328;48.622;9.230;2023-05-15T04:25:34;5.83;;;4.53;;
8580;SDS011;4328;48.622;9.230;2023-05-15T04:28:01;5.20;;;4.70;;
8580;SDS011;4328;48.622;9.230;2023-05-15T04:30:29;5.87;;;4.63;;
8580;SDS011;4328;48.622;9.230;2023-05-15T04:32:56;5.50;;;5.00;;
8580;SDS011;4328;48.622;9.230;2023-05-15T04:35:22;5.63;;;4.97;;
8580;SDS011;4328;48.622;9.230;2023-05-15T04:37:49;5.57;;;5.03;;
8580;SDS011;4328;48.622;9.230;2023-05-15T04:40:16;5.00;;;4.60;;
8580;SDS011;4328;48.622;9.230;2023-05-15T04:42:42;5.63;;;5.13;;
8580;SDS011;4328;48.622;9.230;2023-05-15T04:45:09;5.13;;;4.73;;
8580;SDS011;4328;48.622;9.230;2023-05-15T04:47:37;5.23;;;4.83;;
8580;SDS011;4328;48.622;9.230;2023-05-15T04:50:04;5.40;;;4.57;;
8580;SDS011;4328;48.622;9.230;2023-05-15T04:52:31;5.93;;;4.93;;
8580;SDS011;4328;48.622;9.230;2023-05-15T04:54:58;5.20;;;4.77;;
8580;SDS011;4328;48.622;9.230;2023-05-15T04:57:25;6.10;;;5.40;;
8580;SDS011;4328;48.622;9.230;2023-05-15T04:59:51;5.73;;;5.23;;
8580;SDS011;4328;48.622;9.230;2023-05-15T05:02:19;5.33;;;4.80;;
8580;SDS011;4328;48.622;9.230;2023-05-15T05:04:48;5.50;;;5.10;;
8580;SDS011;4328;48.622;9.230;2023-05-15T05:07:14;5.50;;;5.10;;
8580;SDS011;4328;48.622;9.230;2023-05-15T05:09:41;5.03;;;4.67;;
8580;SDS011;4328;48.622;9.230;2023-05-15T05:12:08;5.57;;;5.07;;
8580;SDS011;4328;48.622;9.230;2023-05-15T05:14:35;5.23;;;4.77;;
8580;SDS011;4328;48.622;9.230;2023-05-15T05:17:04;5.13;;;4.60;;
8580;SDS011;4328;48.622;9.230;2023-05-15T05:19:31;5.00;;;4.60;;
8580;SDS011;4328;48.622;9.230;2023-05-15T05:21:59;5.00;;;4.60;;
8580;SDS011;4328;48.622;9.230;2023-05-15T05:24:29;4.93;;;4.53;;
8580;SDS011;4328;48.622;9.230;2023-05-15T05:26:55;6.37;;;5.27;;
8580;SDS011;4328;48.622;9.230;2023-05-15T05:29:23;5.30;;;4.90;;
8580;SDS011;4328;48.622;9.230;2023-05-15T05:31:49;5.67;;;4.83;;
8580;SDS011;4328;48.622;9.230;2023-05-15T05:34:16;4.93;;;4.53;;
8580;SDS011;4328;48.622;9.230;2023-05-15T05:36:43;4.47;;;4.17;;
8580;SDS011;4328;48.622;9.230;2023-05-15T05:39:11;7.57;;;5.00;;
8580;SDS011;4328;48.622;9.230;2023-05-15T05:41:38;5.97;;;4.80;;
8580;SDS011;4328;48.622;9.230;2023-05-15T05:44:04;5.17;;;4.77;;
8580;SDS011;4328;48.622;9.230;2023-05-15T05:46:31;4.53;;;4.13;;
8580;SDS011;4328;48.622;9.230;2023-05-15T05:48:57;4.80;;;4.40;;
8580;SDS011;4328;48.622;9.230;2023-05-15T05:51:24;4.60;;;4.30;;
8580;SDS011;4328;48.622;9.230;2023-05-15T05:53:51;5.83;;;4.53;;
8580;SDS011;4328;48.622;9.230;2023-05-15T05:56:19;5.30;;;4.80;;
8580;SDS011;4328;48.622;9.230;2023-05-15T05:58:46;4.23;;;3.90;;
8580;SDS011;4328;48.622;9.230;2023-05-15T06:01:13;4.73;;;4.33;;
8580;SDS011;4328;48.622;9.230;2023-05-15T06:03:41;5.03;;;4.63;;
8580;SDS011;4328;48.622;9.230;2023-05-15T06:06:08;4.80;;;4.40;;
8580;SDS011;4328;48.622;9.230;2023-05-15T06:08:35;4.47;;;4.17;;
8580;SDS011;4328;48.622;9.230;2023-05-15T06:11:02;4.40;;;4.10;;
8580;SDS011;4328;48.622;9.230;2023-05-15T06:13:30;4.53;;;4.13;;
8580;SDS011;4328;48.622;9.230;2023-05-15T06:15:57;5.17;;;4.77;;
8580;SDS011;4328;48.622;9.230;2023-05-15T06:18:23;4.43;;;4.13;;
8580;SDS011;4328;48.622;9.230;2023-05-15T06:20:50;4.23;;;3.93;;
8580;SDS011;4328;48.622;9.230;2023-05-15T06:23:17;4.23;;;3.93;;
8580;SDS011;4328;48.622;9.230;2023-05-15T06:25:44;5.07;;;4.00;;
8580;SDS011;4328;48.622;9.230;2023-05-15T06:28:10;3.97;;;3.67;;
8580;SDS011;4328;48.622;9.230;2023-05-15T06:30:38;4.57;;;3.80;;
8580;SDS011;4328;48.622;9.230;2023-05-15T06:33:05;4.27;;;3.97;;
8580;SDS011;4328;48.622;9.230;2023-05-15T06:35:31;3.70;;;3.50;;
8580;SDS011;4328;48.622;9.230;2023-05-15T06:37:58;4.13;;;3.83;;
8580;SDS011;4328;48.622;9.230;2023-05-15T06:40:26;4.00;;;3.80;;
8580;SDS011;4328;48.622;9.230;2023-05-15T06:42:52;4.33;;;3.80;;
8580;SDS011;4328;48.622;9.230;2023-05-15T06:45:19;3.93;;;3.67;;
8580;SDS011;4328;48.622;9.230;2023-05-15T06:47:47;4.20;;;3.90;;
8580;SDS011;4328;48.622;9.230;2023-05-15T06:50:14;3.47;;;3.27;;
8580;SDS011;4328;48.622;9.230;2023-05-15T06:52:40;4.03;;;3.73;;
8580;SDS011;4328;48.622;9.230;2023-05-15T06:55:07;3.93;;;3.63;;
8580;SDS011;4328;48.622;9.230;2023-05-15T06:57:34;4.37;;;3.40;;
8580;SDS011;4328;48.622;9.230;2023-05-15T07:00:01;4.00;;;3.70;;
8580;SDS011;4328;48.622;9.230;2023-05-15T07:02:29;3.83;;;3.63;;
8580;SDS011;4328;48.622;9.230;2023-05-15T07:04:57;3.93;;;3.67;;
8580;SDS011;4328;48.622;9.230;2023-05-15T07:07:23;3.97;;;3.77;;
8580;SDS011;4328;48.622;9.230;2023-05-15T07:09:50;3.80;;;3.50;;
8580;SDS011;4328;48.622;9.230;2023-05-15T07:12:17;3.93;;;3.73;;
8580;SDS011;4328;48.622;9.230;2023-05-15T07:14:46;4.07;;;3.77;;
8580;SDS011;4328;48.622;9.230;2023-05-15T07:17:12;4.43;;;4.13;;
8580;SDS011;4328;48.622;9.230;2023-05-15T07:19:39;4.60;;;4.20;;
8580;SDS011;4328;48.622;9.230;2023-05-15T07:22:07;5.20;;;4.47;;
8580;SDS011;4328;48.622;9.230;2023-05-15T07:24:33;4.43;;;4.10;;
8580;SDS011;4328;48.622;9.230;2023-05-15T07:27:00;4.30;;;4.00;;
8580;SDS011;4328;48.622;9.230;2023-05-15T07:29:27;4.17;;;3.73;;
8580;SDS011;4328;48.622;9.230;2023-05-15T07:31:53;4.10;;;3.80;;
8580;SDS011;4328;48.622;9.230;2023-05-15T07:34:20;5.10;;;3.97;;
8580;SDS011;4328;48.622;9.230;2023-05-15T07:36:47;3.93;;;3.70;;
8580;SDS011;4328;48.622;9.230;2023-05-15T07:39:17;4.60;;;4.30;;
8580;SDS011;4328;48.622;9.230;2023-05-15T07:41:44;4.00;;;3.70;;
8580;SDS011;4328;48.622;9.230;2023-05-15T07:44:11;4.00;;;3.70;;
8580;SDS011;4328;48.622;9.230;2023-05-15T07:46:38;4.20;;;3.90;;
8580;SDS011;4328;48.622;9.230;2023-05-15T07:49:04;4.40;;;4.10;;
8580;SDS011;4328;48.622;9.230;2023-05-15T07:51:31;4.60;;;4.27;;
8580;SDS011;4328;48.622;9.230;2023-05-15T07:53:57;4.60;;;3.80;;
8580;SDS011;4328;48.622;9.230;2023-05-15T07:56:26;3.70;;;3.40;;
8580;SDS011;4328;48.622;9.230;2023-05-15T07:58:52;3.67;;;3.47;;
8580;SDS011;4328;48.622;9.230;2023-05-15T08:01:19;3.50;;;3.30;;
8580;SDS011;4328;48.622;9.230;2023-05-15T08:03:45;3.13;;;2.93;;
8580;SDS011;4328;48.622;9.230;2023-05-15T08:06:12;3.77;;;3.57;;
8580;SDS011;4328;48.622;9.230;2023-05-15T08:08:40;3.67;;;3.37;;
8580;SDS011;4328;48.622;9.230;2023-05-15T08:11:06;3.57;;;3.37;;
8580;SDS011;4328;48.622;9.230;2023-05-15T08:13:34;4.03;;;3.70;;
8580;SDS011;4328;48.622;9.230;2023-05-15T08:16:01;4.10;;;3.80;;
8580;SDS011;4328;48.622;9.230;2023-05-15T08:18:28;3.73;;;3.43;;
8580;SDS011;4328;48.622;9.230;2023-05-15T08:20:55;3.70;;;3.50;;
8580;SDS011;4328;48.622;9.230;2023-05-15T08:23:22;3.90;;;3.60;;
8580;SDS011;4328;48.622;9.230;2023-05-15T08:25:48;4.43;;;3.53;;
8580;SDS011;4328;48.622;9.230;2023-05-15T08:28:15;3.93;;;3.43;;
8580;SDS011;4328;48.622;9.230;2023-05-15T08:30:43;3.80;;;3.50;;
8580;SDS011;4328;48.622;9.230;2023-05-15T08:33:10;3.50;;;3.30;;
8580;SDS011;4328;48.622;9.230;2023-05-15T08:35:36;3.53;;;3.33;;
8580;SDS011;4328;48.622;9.230;2023-05-15T08:38:03;3.67;;;3.37;;
8580;SDS011;4328;48.622;9.230;2023-05-15T08:40:30;4.47;;;3.33;;
8580;SDS011;4328;48.622;9.230;2023-05-15T08:42:58;3.40;;;3.20;;
8580;SDS011;4328;48.622;9.230;2023-05-15T08:45:28;3.83;;;3.23;;
8580;SDS011;4328;48.622;9.230;2023-05-15T08:47:56;3.00;;;2.80;;
8580;SDS011;4328;48.622;9.230;2023-05-15T08:50:25;3.75;;;3.20;;
8580;SDS011;4328;48.622;9.230;2023-05-15T08:52:53;3.22;;;3.03;;
8580;SDS011;4328;48.622;9.230;2023-05-15T08:55:22;3.47;;;2.72;;
8580;SDS011;4328;48.622;9.230;2023-05-15T08:57:49;3.05;;;2.78;;
8580;SDS011;4328;48.622;9.230;2023-05-15T09:00:16;3.33;;;2.92;;
8580;SDS011;4328;48.622;9.230;2023-05-15T09:02:45;3.00;;;2.42;;
8580;SDS011;4328;48.622;9.230;2023-05-15T09:05:14;3.35;;;2.97;;
8580;SDS011;4328;48.622;9.230;2023-05-15T09:07:40;2.75;;;2.55;;
8580;SDS011;4328;48.622;9.230;2023-05-15T09:10:09;2.63;;;2.42;;
8580;SDS011;4328;48.622;9.230;2023-05-15T09:12:37;2.80;;;2.70;;
8580;SDS011;4328;48.622;9.230;2023-05-15T09:15:09;3.30;;;2.85;;
8580;SDS011;4328;48.622;9.230;2023-05-15T09:17:38;3.00;;;2.80;;
8580;SDS011;4328;48.622;9.230;2023-05-15T09:20:10;3.05;;;2.85;;
8580;SDS011;4328;48.622;9.230;2023-05-15T09:22:52;3.10;;;2.90;;
8580;SDS011;4328;48.622;9.230;2023-05-15T09:25:30;3.13;;;2.92;;
8580;SDS011;4328;48.622;9.230;2023-05-15T09:27:58;3.75;;;2.85;;
8580;SDS011;4328;48.622;9.230;2023-05-15T09:30:25;4.50;;;3.10;;
8580;SDS011;4328;48.622;9.230;2023-05-15T09:32:52;3.22;;;2.97;;
8580;SDS011;4328;48.622;9.230;2023-05-15T09:38:08;3.27;;;3.00;;
8580;SDS011;4328;48.622;9.230;2023-05-15T09:40:37;3.10;;;2.90;;
8580;SDS011;4328;48.622;9.230;2023-05-15T09:43:04;3.37;;;3.17;;
8580;SDS011;4328;48.622;9.230;2023-05-15T09:45:31;3.20;;;2.90;;
8580;SDS011;4328;48.622;9.230;2023-05-15T09:47:58;3.60;;;3.30;;
8580;SDS011;4328;48.622;9.230;2023-05-15T09:50:30;3.20;;;3.00;;
8580;SDS011;4328;48.622;9.230;2023-05-15T09:53:00;3.00;;;2.70;;
8580;SDS011;4328;48.622;9.230;2023-05-15T09:55:27;3.00;;;2.80;;
8580;SDS011;4328;48.622;9.230;2023-05-15T09:58:03;3.10;;;2.90;;
8580;SDS011;4328;48.622;9.230;2023-05-15T10:00:31;3.00;;;2.80;;
8580;SDS011;4328;48.622;9.230;2023-05-15T10:02:59;2.70;;;2.60;;
8580;SDS011;4328;48.622;9.230;2023-05-15T10:05:26;4.50;;;2.60;;
8580;SDS011;4328;48.622;9.230;2023-05-15T10:07:54;3.10;;;2.90;;
8580;SDS011;4328;48.622;9.230;2023-05-15T10:10:22;2.90;;;2.60;;
8580;SDS011;4328;48.622;9.230;2023-05-15T10:12:50;2.63;;;2.43;;
8580;SDS011;4328;48.622;9.230;2023-05-15T10:15:18;2.83;;;2.63;;
8580;SDS011;4328;48.622;9.230;2023-05-15T10:17:45;3.73;;;2.90;;
8580;SDS011;4328;48.622;9.230;2023-05-15T10:20:12;6.07;;;3.80;;
8580;SDS011;4328;48.622;9.230;2023-05-15T10:22:41;6.53;;;4.07;;
8580;SDS011;4328;48.622;9.230;2023-05-15T10:25:12;5.30;;;4.70;;
8580;SDS011;4328;48.622;9.230;2023-05-15T10:27:43;5.17;;;4.30;;
8580;SDS011;4328;48.622;9.230;2023-05-15T10:30:12;7.50;;;4.13;;
8580;SDS011;4328;48.622;9.230;2023-05-15T10:32:40;5.00;;;3.90;;
8580;SDS011;4328;48.622;9.230;2023-05-15T10:35:08;4.77;;;4.30;;
8580;SDS011;4328;48.622;9.230;2023-05-15T10:37:36;5.60;;;4.30;;
8580;SDS011;4328;48.622;9.230;2023-05-15T10:40:05;4.47;;;4.03;;
8580;SDS011;4328;48.622;9.230;2023-05-15T10:42:34;5.03;;;3.83;;
8580;SDS011;4328;48.622;9.230;2023-05-15T10:45:03;3.60;;;3.33;;
8580;SDS011;4328;48.622;9.230;2023-05-15T10:47:32;3.80;;;2.97;;
8580;SDS011;4328;48.622;9.230;2023-05-15T10:50:00;3.83;;;2.90;;
8580;SDS011;4328;48.622;9.230;2023-05-15T10:52:27;3.13;;;2.93;;
8580;SDS011;4328;48.622;9.230;2023-05-15T10:54:53;2.75;;;2.53;;
8580;SDS011;4328;48.622;9.230;2023-05-15T10:57:20;4.28;;;2.80;;
8580;SDS011;4328;48.622;9.230;2023-05-15T10:59:47;3.03;;;2.60;;
8580;SDS011;4328;48.622;9.230;2023-05-15T11:02:19;3.17;;;2.70;;
8580;SDS011;4328;48.622;9.230;2023-05-15T11:04:47;2.67;;;2.47;;
8580;SDS011;4328;48.622;9.230;2023-05-15T11:07:19;3.00;;;2.80;;
8580;SDS011;4328;48.622;9.230;2023-05-15T11:09:48;3.45;;;3.00;;
8580;SDS011;4328;48.622;9.230;2023-05-15T11:12:15;3.45;;;3.10;;
8580;SDS011;4328;48.622;9.230;2023-05-15T11:14:42;4.13;;;3.20;;
8580;SDS011;4328;48.622;9.230;2023-05-15T11:17:10;3.10;;;2.80;;
8580;SDS011;4328;48.622;9.230;2023-05-15T11:22:26;2.70;;;2.50;;
8580;SDS011;4328;48.622;9.230;2023-05-15T11:24:58;2.93;;;2.70;;
8580;SDS011;4328;48.622;9.230;2023-05-15T11:27:26;3.67;;;2.40;;
8580;SDS011;4328;48.622;9.230;2023-05-15T11:30:07;3.30;;;2.73;;
8580;SDS011;4328;48.622;9.230;2023-05-15T11:32:52;2.73;;;2.53;;
8580;SDS011;4328;48.622;9.230;2023-05-15T11:35:23;2.83;;;2.63;;
8580;SDS011;4328;48.622;9.230;2023-05-15T11:37:53;3.27;;;2.90;;
8580;SDS011;4328;48.622;9.230;2023-05-15T11:40:22;3.33;;;2.60;;
8580;SDS011;4328;48.622;9.230;2023-05-15T11:43:03;3.20;;;2.90;;
8580;SDS011;4328;48.622;9.230;2023-05-15T11:45:32;2.97;;;2.77;;
8580;SDS011;4328;48.622;9.230;2023-05-15T11:48:02;3.00;;;2.80;;
8580;SDS011;4328;48.622;9.230;2023-05-15T11:50:31;2.80;;;2.60;;
8580;SDS011;4328;48.622;9.230;2023-05-15T11:53:03;2.60;;;2.40;;
8580;SDS011;4328;48.622;9.230;2023-05-15T11:55:31;2.93;;;2.70;;
8580;SDS011;4328;48.622;9.230;2023-05-15T11:58:00;2.97;;;2.70;;
8580;SDS011;4328;48.622;9.230;2023-05-15T12:00:26;4.13;;;2.40;;
8580;SDS011;4328;48.622;9.230;2023-05-15T12:02:53;2.47;;;2.35;;
8580;SDS011;4328;48.622;9.230;2023-05-15T12:05:20;1.95;;;1.85;;
8580;SDS011;4328;48.622;9.230;2023-05-15T12:07:48;3.08;;;1.77;;
8580;SDS011;4328;48.622;9.230;2023-05-15T12:10:15;2.17;;;2.08;;
8580;SDS011;4328;48.622;9.230;2023-05-15T12:12:42;2.00;;;1.90;;
8580;SDS011;4328;48.622;9.230;2023-05-15T12:15:10;2.20;;;2.10;;
8580;SDS011;4328;48.622;9.230;2023-05-15T12:17:37;3.10;;;2.10;;
8580;SDS011;4328;48.622;9.230;2023-05-15T12:20:06;2.27;;;2.17;;
8580;SDS011;4328;48.622;9.230;2023-05-15T12:22:35;2.20;;;1.97;;
8580;SDS011;4328;48.622;9.230;2023-05-15T12:25:04;1.90;;;1.80;;
8580;SDS011;4328;48.622;9.230;2023-05-15T12:27:32;2.10;;;2.00;;
8580;SDS011;4328;48.622;9.230;2023-05-15T12:29:59;2.50;;;2.30;;
8580;SDS011;4328;48.622;9.230;2023-05-15T12:32:27;3.20;;;2.90;;
8580;SDS011;4328;48.622;9.230;2023-05-15T12:34:56;2.87;;;2.67;;
8580;SDS011;4328;48.622;9.230;2023-05-15T12:37:23;2.73;;;2.50;;
8580;SDS011;4328;48.622;9.230;2023-05-15T12:39:50;3.77;;;2.30;;
8580;SDS011;4328;48.622;9.230;2023-05-15T12:42:20;2.50;;;2.30;;
8580;SDS011;4328;48.622;9.230;2023-05-15T12:44:49;2.77;;;2.57;;
8580;SDS011;4328;48.622;9.230;2023-05-15T12:47:20;2.80;;;2.30;;
8580;SDS011;4328;48.622;9.230;2023-05-15T12:49:49;2.40;;;2.20;;
8580;SDS011;4328;48.622;9.230;2023-05-15T12:52:16;1.80;;;1.70;;
8580;SDS011;4328;48.622;9.230;2023-05-15T12:54:43;2.30;;;2.10;;
8580;SDS011;4328;48.622;9.230;2023-05-15T12:57:10;2.22;;;1.80;;
8580;SDS011;4328;48.622;9.230;2023-05-15T12:59:38;1.92;;;1.83;;
8580;SDS011;4328;48.622;9.230;2023-05-15T13:02:07;2.33;;;2.10;;
8580;SDS011;4328;48.622;9.230;2023-05-15T13:04:35;3.03;;;2.08;;
8580;SDS011;4328;48.622;9.230;2023-05-15T13:07:02;2.38;;;2.17;;
8580;SDS011;4328;48.622;9.230;2023-05-15T13:09:29;2.30;;;2.10;;
8580;SDS011;4328;48.622;9.230;2023-05-15T13:11:57;2.30;;;2.10;;
8580;SDS011;4328;48.622;9.230;2023-05-15T13:14:26;2.47;;;2.07;;
8580;SDS011;4328;48.622;9.230;2023-05-15T13:16:57;2.27;;;2.07;;
8580;SDS011;4328;48.622;9.230;2023-05-15T13:19:25;2.53;;;2.33;;
8580;SDS011;4328;48.622;9.230;2023-05-15T13:21:52;3.23;;;2.30;;
8580;SDS011;4328;48.622;9.230;2023-05-15T13:24:18;2.33;;;2.03;;
8580;SDS011;4328;48.622;9.230;2023-05-15T13:26:45;4.17;;;2.20;;
8580;SDS011;4328;48.622;9.230;2023-05-15T13:29:12;2.23;;;2.07;;
8580;SDS011;4328;48.622;9.230;2023-05-15T13:31:38;2.20;;;2.10;;
8580;SDS011;4328;48.622;9.230;2023-05-15T13:34:06;2.30;;;2.10;;
8580;SDS011;4328;48.622;9.230;2023-05-15T13:36:33;2.40;;;2.20;;
8580;SDS011;4328;48.622;9.230;2023-05-15T13:39:00;2.17;;;2.00;;
8580;SDS011;4328;48.622;9.230;2023-05-15T13:41:27;2.53;;;2.33;;
8580;SDS011;4328;48.622;9.230;2023-05-15T13:43:54;2.40;;;2.17;;
8580;SDS011;4328;48.622;9.230;2023-05-15T13:46:21;2.90;;;2.20;;
8580;SDS011;4328;48.622;9.230;2023-05-15T13:48:47;2.23;;;2.13;;
8580;SDS011;4328;48.622;9.230;2023-05-15T13:51:15;5.33;;;2.60;;
8580;SDS011;4328;48.622;9.230;2023-05-15T13:53:42;2.63;;;2.47;;
8580;SDS011;4328;48.622;9.230;2023-05-15T13:56:08;4.57;;;2.70;;
8580;SDS011;4328;48.622;9.230;2023-05-15T13:58:35;3.00;;;2.80;;
8580;SDS011;4328;48.622;9.230;2023-05-15T14:01:03;2.87;;;2.60;;
8580;SDS011;4328;48.622;9.230;2023-05-15T14:03:31;4.07;;;2.77;;
8580;SDS011;4328;48.622;9.230;2023-05-15T14:05:58;3.07;;;2.53;;
8580;SDS011;4328;48.622;9.230;2023-05-15T14:08:26;3.20;;;2.67;;
8580;SDS011;4328;48.622;9.230;2023-05-15T14:10:53;3.20;;;2.70;;
8580;SDS011;4328;48.622;9.230;2023-05-15T14:13:19;2.60;;;2.43;;
8580;SDS011;4328;48.622;9.230;2023-05-15T14:15:47;3.30;;;3.00;;
8580;SDS011;4328;48.622;9.230;2023-05-15T14:18:13;3.47;;;2.57;;
8580;SDS011;4328;48.622;9.230;2023-05-15T14:20:40;3.00;;;2.80;;
8580;SDS011;4328;48.622;9.230;2023-05-15T14:23:07;3.27;;;2.50;;
8580;SDS011;4328;48.622;9.230;2023-05-15T14:25:35;3.17;;;2.80;;
8580;SDS011;4328;48.622;9.230;2023-05-15T14:28:01;2.80;;;2.60;;
8580;SDS011;4328;48.622;9.230;2023-05-15T14:30:28;2.43;;;2.30;;
8580;SDS011;4328;48.622;9.230;2023-05-15T14:32:54;2.63;;;2.50;;
8580;SDS011;4328;48.622;9.230;2023-05-15T14:35:21;2.77;;;2.57;;
8580;SDS011;4328;48.622;9.230;2023-05-15T14:37:48;2.90;;;2.60;;
8580;SDS011;4328;48.622;9.230;2023-05-15T14:40:14;3.07;;;2.80;;
8580;SDS011;4328;48.622;9.230;2023-05-15T14:42:42;3.10;;;2.83;;
8580;SDS011;4328;48.622;9.230;2023-05-15T14:45:09;3.17;;;2.97;;
8580;SDS011;4328;48.622;9.230;2023-05-15T14:47:36;3.20;;;2.90;;
8580;SDS011;4328;48.622;9.230;2023-05-15T14:50:03;3.40;;;3.10;;
8580;SDS011;4328;48.622;9.230;2023-05-15T14:52:30;3.10;;;2.93;;
8580;SDS011;4328;48.622;9.230;2023-05-15T14:54:57;3.50;;;3.20;;
8580;SDS011;4328;48.622;9.230;2023-05-15T14:57:24;3.87;;;3.53;;
8580;SDS011;4328;48.622;9.230;2023-05-15T14:59:52;4.47;;;3.47;;
8580;SDS011;4328;48.622;9.230;2023-05-15T15:02:20;5.03;;;3.47;;
8580;SDS011;4328;48.622;9.230;2023-05-15T15:04:46;3.50;;;3.30;;
8580;SDS011;4328;48.622;9.230;2023-05-15T15:07:13;3.67;;;3.30;;
8580;SDS011;4328;48.622;9.230;2023-05-15T15:09:39;3.80;;;3.50;;
8580;SDS011;4328;48.622;9.230;2023-05-15T15:12:06;5.27;;;3.70;;
8580;SDS011;4328;48.622;9.230;2023-05-15T15:14:33;5.20;;;3.60;;
8580;SDS011;4328;48.622;9.230;2023-05-15T15:17:01;4.07;;;3.67;;
8580;SDS011;4328;48.622;9.230;2023-05-15T15:19:27;3.87;;;3.57;;
8580;SDS011;4328;48.622;9.230;2023-05-15T15:21:54;3.93;;;3.53;;
8580;SDS011;4328;48.622;9.230;2023-05-15T15:24:21;5.27;;;3.23;;
8580;SDS011;4328;48.622;9.230;2023-05-15T15:26:48;3.60;;;3.30;;
8580;SDS011;4328;48.622;9.230;2023-05-15T15:29:14;3.63;;;3.33;;